sensor_id;sensor_type;location;lat;lon;timestamp;temperature;humidity
25877;DHT22;13692;47.480;19.216;2024-01-07T00:00:07;7.50;99.90
25877;DHT22;13692;47.480;19.216;2024-01-07T00:02:34;7.50;99.90
25877;DHT22;13692;47.480;19.216;2024-01-07T00:05:03;7.50;99.90
25877;DHT22;13692;47.480;19.216;2024-01-07T00:07:30;7.50;99.90
25877;DHT22;13692;47.480;19.216;2024-01-07T00:09:57;7.50;99.90
25877;DHT22;13692;47.480;19.216;2024-01-07T00:12:24;7.50;99.90
25877;DHT22;13692;47.480;19.216;2024-01-07T00:14:52;7.60;99.90
25877;DHT22;13692;47.480;19.216;2024-01-07T00:17:19;7.60;99.90
25877;DHT22;13692;47.480;19.216;2024-01-07T00:19:46;7.50;99.90
25877;DHT22;13692;47.480;19.216;2024-01-07T00:22:13;7.50;99.90
25877;DHT22;13692;47.480;19.216;2024-01-07T00:24:39;7.50;99.90
25877;DHT22;13692;47.480;19.216;2024-01-07T00:27:06;7.60;99.90
25877;DHT22;13692;47.480;19.216;2024-01-07T00:29:35;7.60;99.90
25877;DHT22;13692;47.480;19.216;2024-01-07T00:32:02;7.50;99.90
25877;DHT22;13692;47.480;19.216;2024-01-07T00:34:29;7.50;99.90
25877;DHT22;13692;47.480;19.216;2024-01-07T00:36:56;7.60;99.90
25877;DHT22;13692;47.480;19.216;2024-01-07T00:39:24;7.50;99.90
25877;DHT22;13692;47.480;19.216;2024-01-07T00:41:51;7.50;99.90
25877;DHT22;13692;47.480;19.216;2024-01-07T00:44:18;7.60;99.90
25877;DHT22;13692;47.480;19.216;2024-01-07T00:46:45;7.60;99.90
25877;DHT22;13692;47.480;19.216;2024-01-07T00:49:15;7.60;99.90
25877;DHT22;13692;47.480;19.216;2024-01-07T00:51:42;7.60;99.90
25877;DHT22;13692;47.480;19.216;2024-01-07T00:54:09;7.60;99.90
25877;DHT22;13692;47.480;19.216;2024-01-07T00:56:36;7.60;99.90
25877;DHT22;13692;47.480;19.216;2024-01-07T00:59:03;7.50;99.90
25877;DHT22;13692;47.480;19.216;2024-01-07T01:01:31;7.50;99.90
25877;DHT22;13692;47.480;19.216;2024-01-07T01:03:58;7.40;99.90
25877;DHT22;13692;47.480;19.216;2024-01-07T01:06:25;7.40;99.90
25877;DHT22;13692;47.480;19.216;2024-01-07T01:08:52;7.40;99.90
25877;DHT22;13692;47.480;19.216;2024-01-07T01:11:19;7.40;99.90
25877;DHT22;13692;47.480;19.216;2024-01-07T01:13:46;7.50;99.90
25877;DHT22;13692;47.480;19.216;2024-01-07T01:16:13;7.40;99.90
25877;DHT22;13692;47.480;19.216;2024-01-07T01:18:40;7.40;99.90
25877;DHT22;13692;47.480;19.216;2024-01-07T01:21:07;7.40;99.90
25877;DHT22;13692;47.480;19.216;2024-01-07T01:23:34;7.40;99.90
25877;DHT22;13692;47.480;19.216;2024-01-07T01:26:01;7.50;99.90
25877;DHT22;13692;47.480;19.216;2024-01-07T01:28:28;7.50;99.90
25877;DHT22;13692;47.480;19.216;2024-01-07T01:30:55;7.50;99.90
25877;DHT22;13692;47.480;19.216;2024-01-07T01:33:22;7.50;99.90
25877;DHT22;13692;47.480;19.216;2024-01-07T01:35:50;7.50;99.90
25877;DHT22;13692;47.480;19.216;2024-01-07T01:38:17;7.50;99.90
25877;DHT22;13692;47.480;19.216;2024-01-07T01:40:43;7.60;99.90
25877;DHT22;13692;47.480;19.216;2024-01-07T01:43:10;7.60;99.90
25877;DHT22;13692;47.480;19.216;2024-01-07T01:45:37;7.50;99.90
25877;DHT22;13692;47.480;19.216;2024-01-07T01:48:05;7.60;99.90
25877;DHT22;13692;47.480;19.216;2024-01-07T01:50:32;7.50;99.90
25877;DHT22;13692;47.480;19.216;2024-01-07T01:52:59;7.50;99.90
25877;DHT22;13692;47.480;19.216;2024-01-07T01:55:26;7.50;99.90
25877;DHT22;13692;47.480;19.216;2024-01-07T01:57:54;7.60;99.90
25877;DHT22;13692;47.480;19.216;2024-01-07T02:00:23;7.50;99.90
25877;DHT22;13692;47.480;19.216;2024-01-07T02:02:50;7.60;99.90
25877;DHT22;13692;47.480;19.216;2024-01-07T02:05:17;7.60;99.90
25877;DHT22;13692;47.480;19.216;2024-01-07T02:07:44;7.60;99.90
25877;DHT22;13692;47.480;19.216;2024-01-07T02:10:11;7.60;99.90
25877;DHT22;13692;47.480;19.216;2024-01-07T02:12:39;7.60;99.90
25877;DHT22;13692;47.480;19.216;2024-01-07T02:15:06;7.70;99.90
25877;DHT22;13692;47.480;19.216;2024-01-07T02:17:33;7.70;99.90
25877;DHT22;13692;47.480;19.216;2024-01-07T02:20:00;7.60;99.90
25877;DHT22;13692;47.480;19.216;2024-01-07T02:22:28;7.70;99.90
25877;DHT22;13692;47.480;19.216;2024-01-07T02:24:54;7.70;99.90
25877;DHT22;13692;47.480;19.216;2024-01-07T02:27:21;7.70;99.90
25877;DHT22;13692;47.480;19.216;2024-01-07T02:29:48;7.70;99.90
25877;DHT22;13692;47.480;19.216;2024-01-07T02:32:15;7.70;99.90
25877;DHT22;13692;47.480;19.216;2024-01-07T02:34:42;7.60;99.90
25877;DHT22;13692;47.480;19.216;2024-01-07T02:37:11;7.70;99.90
25877;DHT22;13692;47.480;19.216;2024-01-07T02:39:38;7.70;99.90
25877;DHT22;13692;47.480;19.216;2024-01-07T02:42:05;7.70;99.90
25877;DHT22;13692;47.480;19.216;2024-01-07T02:44:32;7.70;99.90
25877;DHT22;13692;47.480;19.216;2024-01-07T02:46:59;7.70;99.90
25877;DHT22;13692;47.480;19.216;2024-01-07T02:49:25;7.70;99.90
25877;DHT22;13692;47.480;19.216;2024-01-07T02:51:52;7.70;99.90
25877;DHT22;13692;47.480;19.216;2024-01-07T02:54:19;7.70;99.90
25877;DHT22;13692;47.480;19.216;2024-01-07T02:56:46;7.60;99.90
25877;DHT22;13692;47.480;19.216;2024-01-07T02:59:13;7.60;99.90
25877;DHT22;13692;47.480;19.216;2024-01-07T03:01:40;7.60;99.90
25877;DHT22;13692;47.480;19.216;2024-01-07T03:04:13;7.70;99.90
25877;DHT22;13692;47.480;19.216;2024-01-07T03:06:40;7.60;99.90
25877;DHT22;13692;47.480;19.216;2024-01-07T03:09:08;7.60;99.90
25877;DHT22;13692;47.480;19.216;2024-01-07T03:11:40;7.60;99.90
25877;DHT22;13692;47.480;19.216;2024-01-07T03:14:10;7.60;99.90
25877;DHT22;13692;47.480;19.216;2024-01-07T03:16:37;7.70;99.90
25877;DHT22;13692;47.480;19.216;2024-01-07T03:19:04;7.70;99.90
25877;DHT22;13692;47.480;19.216;2024-01-07T03:21:31;7.70;99.90
25877;DHT22;13692;47.480;19.216;2024-01-07T03:23:58;7.70;99.90
25877;DHT22;13692;47.480;19.216;2024-01-07T03:26:29;7.70;99.90
25877;DHT22;13692;47.480;19.216;2024-01-07T03:28:59;7.70;99.90
25877;DHT22;13692;47.480;19.216;2024-01-07T03:31:26;7.80;99.90
25877;DHT22;13692;47.480;19.216;2024-01-07T03:33:54;7.80;99.90
25877;DHT22;13692;47.480;19.216;2024-01-07T03:36:21;7.80;99.90
25877;DHT22;13692;47.480;19.216;2024-01-07T03:38:48;7.80;99.90
25877;DHT22;13692;47.480;19.216;2024-01-07T03:41:19;7.80;99.90
25877;DHT22;13692;47.480;19.216;2024-01-07T03:43:47;7.80;99.90
25877;DHT22;13692;47.480;19.216;2024-01-07T03:46:16;7.80;99.90
25877;DHT22;13692;47.480;19.216;2024-01-07T03:48:43;7.80;99.90
25877;DHT22;13692;47.480;19.216;2024-01-07T03:51:11;7.80;99.90
25877;DHT22;13692;47.480;19.216;2024-01-07T03:53:38;7.80;99.90
25877;DHT22;13692;47.480;19.216;2024-01-07T03:56:05;7.80;99.90
25877;DHT22;13692;47.480;19.216;2024-01-07T03:58:32;7.80;99.90
25877;DHT22;13692;47.480;19.216;2024-01-07T04:00:59;7.80;99.90
25877;DHT22;13692;47.480;19.216;2024-01-07T04:03:26;7.90;99.90
25877;DHT22;13692;47.480;19.216;2024-01-07T04:05:53;7.90;99.90
25877;DHT22;13692;47.480;19.216;2024-01-07T04:08:20;7.90;99.90
25877;DHT22;13692;47.480;19.216;2024-01-07T04:10:47;7.80;99.90
25877;DHT22;13692;47.480;19.216;2024-01-07T04:13:14;7.80;99.90
25877;DHT22;13692;47.480;19.216;2024-01-07T04:15:41;7.90;99.90
25877;DHT22;13692;47.480;19.216;2024-01-07T04:18:08;7.90;99.90
25877;DHT22;13692;47.480;19.216;2024-01-07T04:20:35;8.00;99.90
25877;DHT22;13692;47.480;19.216;2024-01-07T04:23:02;8.00;99.90
25877;DHT22;13692;47.480;19.216;2024-01-07T04:25:29;8.00;99.90
25877;DHT22;13692;47.480;19.216;2024-01-07T04:27:56;8.00;99.90
25877;DHT22;13692;47.480;19.216;2024-01-07T04:30:23;8.10;99.90
25877;DHT22;13692;47.480;19.216;2024-01-07T04:32:50;8.10;99.90
25877;DHT22;13692;47.480;19.216;2024-01-07T04:35:17;8.10;99.90
25877;DHT22;13692;47.480;19.216;2024-01-07T04:37:44;8.10;99.90
25877;DHT22;13692;47.480;19.216;2024-01-07T04:40:11;8.20;99.90
25877;DHT22;13692;47.480;19.216;2024-01-07T04:42:38;8.20;99.90
25877;DHT22;13692;47.480;19.216;2024-01-07T04:45:06;8.30;99.90
25877;DHT22;13692;47.480;19.216;2024-01-07T04:47:33;8.30;99.90
25877;DHT22;13692;47.480;19.216;2024-01-07T04:50:04;8.30;99.90
25877;DHT22;13692;47.480;19.216;2024-01-07T04:52:31;8.30;99.90
25877;DHT22;13692;47.480;19.216;2024-01-07T04:54:58;8.30;99.90
25877;DHT22;13692;47.480;19.216;2024-01-07T04:57:25;8.30;99.90
25877;DHT22;13692;47.480;19.216;2024-01-07T04:59:53;8.30;99.90
25877;DHT22;13692;47.480;19.216;2024-01-07T05:02:20;8.30;99.90
25877;DHT22;13692;47.480;19.216;2024-01-07T05:04:48;8.30;99.90
25877;DHT22;13692;47.480;19.216;2024-01-07T05:07:15;8.30;99.90
25877;DHT22;13692;47.480;19.216;2024-01-07T05:09:42;8.30;99.90
25877;DHT22;13692;47.480;19.216;2024-01-07T05:12:09;8.30;99.90
25877;DHT22;13692;47.480;19.216;2024-01-07T05:14:35;8.30;99.90
25877;DHT22;13692;47.480;19.216;2024-01-07T05:17:04;8.30;99.90
25877;DHT22;13692;47.480;19.216;2024-01-07T05:19:31;8.40;99.90
25877;DHT22;13692;47.480;19.216;2024-01-07T05:21:59;8.40;99.90
25877;DHT22;13692;47.480;19.216;2024-01-07T05:24:26;8.40;99.90
25877;DHT22;13692;47.480;19.216;2024-01-07T05:26:53;8.40;99.90
25877;DHT22;13692;47.480;19.216;2024-01-07T05:29:20;8.40;99.90
25877;DHT22;13692;47.480;19.216;2024-01-07T05:31:47;8.30;99.90
25877;DHT22;13692;47.480;19.216;2024-01-07T05:34:14;8.30;99.90
25877;DHT22;13692;47.480;19.216;2024-01-07T05:36:41;8.30;99.90
25877;DHT22;13692;47.480;19.216;2024-01-07T05:39:09;8.30;99.90
25877;DHT22;13692;47.480;19.216;2024-01-07T05:41:37;8.40;99.90
25877;DHT22;13692;47.480;19.216;2024-01-07T05:44:07;8.40;99.90
25877;DHT22;13692;47.480;19.216;2024-01-07T05:46:38;8.30;99.90
25877;DHT22;13692;47.480;19.216;2024-01-07T05:49:07;8.30;99.90
25877;DHT22;13692;47.480;19.216;2024-01-07T05:51:39;8.30;99.90
25877;DHT22;13692;47.480;19.216;2024-01-07T05:54:06;8.30;99.90
25877;DHT22;13692;47.480;19.216;2024-01-07T05:56:39;8.30;99.90
25877;DHT22;13692;47.480;19.216;2024-01-07T05:59:07;8.30;99.90
25877;DHT22;13692;47.480;19.216;2024-01-07T06:01:34;8.30;99.90
25877;DHT22;13692;47.480;19.216;2024-01-07T06:04:02;8.30;99.90
25877;DHT22;13692;47.480;19.216;2024-01-07T06:06:29;8.30;99.90
25877;DHT22;13692;47.480;19.216;2024-01-07T06:08:56;8.30;99.90
25877;DHT22;13692;47.480;19.216;2024-01-07T06:11:23;8.30;99.90
25877;DHT22;13692;47.480;19.216;2024-01-07T06:13:50;8.30;99.90
25877;DHT22;13692;47.480;19.216;2024-01-07T06:16:17;8.30;99.90
25877;DHT22;13692;47.480;19.216;2024-01-07T06:18:44;8.30;99.90
25877;DHT22;13692;47.480;19.216;2024-01-07T06:21:11;8.20;99.90
25877;DHT22;13692;47.480;19.216;2024-01-07T06:23:38;8.20;99.90
25877;DHT22;13692;47.480;19.216;2024-01-07T06:26:05;8.30;99.90
25877;DHT22;13692;47.480;19.216;2024-01-07T06:28:32;8.30;99.90
25877;DHT22;13692;47.480;19.216;2024-01-07T06:31:02;8.30;99.90
25877;DHT22;13692;47.480;19.216;2024-01-07T06:33:30;8.20;99.90
25877;DHT22;13692;47.480;19.216;2024-01-07T06:35:57;8.20;99.90
25877;DHT22;13692;47.480;19.216;2024-01-07T06:38:24;8.20;99.90
25877;DHT22;13692;47.480;19.216;2024-01-07T06:40:51;8.20;99.90
25877;DHT22;13692;47.480;19.216;2024-01-07T06:43:18;8.30;99.90
25877;DHT22;13692;47.480;19.216;2024-01-07T06:45:45;8.30;99.90
25877;DHT22;13692;47.480;19.216;2024-01-07T06:48:12;8.20;99.90
25877;DHT22;13692;47.480;19.216;2024-01-07T06:50:39;8.20;99.90
25877;DHT22;13692;47.480;19.216;2024-01-07T06:53:06;8.20;99.90
25877;DHT22;13692;47.480;19.216;2024-01-07T06:55:33;8.20;99.90
25877;DHT22;13692;47.480;19.216;2024-01-07T06:58:00;8.20;99.90
25877;DHT22;13692;47.480;19.216;2024-01-07T07:00:27;8.30;99.90
25877;DHT22;13692;47.480;19.216;2024-01-07T07:02:54;8.30;99.90
25877;DHT22;13692;47.480;19.216;2024-01-07T07:05:21;8.30;99.90
25877;DHT22;13692;47.480;19.216;2024-01-07T07:07:48;8.30;99.90
25877;DHT22;13692;47.480;19.216;2024-01-07T07:10:19;8.30;99.90
25877;DHT22;13692;47.480;19.216;2024-01-07T07:12:46;8.30;99.90
25877;DHT22;13692;47.480;19.216;2024-01-07T07:15:13;8.30;99.90
25877;DHT22;13692;47.480;19.216;2024-01-07T07:17:40;8.20;99.90
25877;DHT22;13692;47.480;19.216;2024-01-07T07:20:07;8.30;99.90
25877;DHT22;13692;47.480;19.216;2024-01-07T07:22:35;8.30;99.90
25877;DHT22;13692;47.480;19.216;2024-01-07T07:25:02;8.30;99.90
25877;DHT22;13692;47.480;19.216;2024-01-07T07:27:29;8.30;99.90
25877;DHT22;13692;47.480;19.216;2024-01-07T07:29:56;8.30;99.90
25877;DHT22;13692;47.480;19.216;2024-01-07T07:32:23;8.30;99.90
25877;DHT22;13692;47.480;19.216;2024-01-07T07:34:50;8.30;99.90
25877;DHT22;13692;47.480;19.216;2024-01-07T07:37:17;8.30;99.90
25877;DHT22;13692;47.480;19.216;2024-01-07T07:39:47;8.40;99.90
25877;DHT22;13692;47.480;19.216;2024-01-07T07:42:14;8.40;99.90
25877;DHT22;13692;47.480;19.216;2024-01-07T07:44:40;8.40;99.90
25877;DHT22;13692;47.480;19.216;2024-01-07T07:47:08;8.40;99.90
25877;DHT22;13692;47.480;19.216;2024-01-07T07:49:38;8.30;99.90
25877;DHT22;13692;47.480;19.216;2024-01-07T07:52:07;8.30;99.90
25877;DHT22;13692;47.480;19.216;2024-01-07T07:54:37;8.30;99.90
25877;DHT22;13692;47.480;19.216;2024-01-07T07:57:05;8.40;99.90
25877;DHT22;13692;47.480;19.216;2024-01-07T07:59:32;8.30;99.90
25877;DHT22;13692;47.480;19.216;2024-01-07T08:01:59;8.40;99.90
25877;DHT22;13692;47.480;19.216;2024-01-07T08:04:27;8.30;99.90
25877;DHT22;13692;47.480;19.216;2024-01-07T08:06:54;8.40;99.90
25877;DHT22;13692;47.480;19.216;2024-01-07T08:09:23;8.40;99.90
25877;DHT22;13692;47.480;19.216;2024-01-07T08:11:52;8.40;99.90
25877;DHT22;13692;47.480;19.216;2024-01-07T08:14:19;8.40;99.90
25877;DHT22;13692;47.480;19.216;2024-01-07T08:16:46;8.40;99.90
25877;DHT22;13692;47.480;19.216;2024-01-07T08:19:13;8.40;99.90
25877;DHT22;13692;47.480;19.216;2024-01-07T08:21:40;8.40;99.90
25877;DHT22;13692;47.480;19.216;2024-01-07T08:24:08;8.40;99.90
25877;DHT22;13692;47.480;19.216;2024-01-07T08:26:37;8.50;99.90
25877;DHT22;13692;47.480;19.216;2024-01-07T08:29:04;8.50;99.90
25877;DHT22;13692;47.480;19.216;2024-01-07T08:31:31;8.50;99.90
25877;DHT22;13692;47.480;19.216;2024-01-07T08:33:59;8.50;99.90
25877;DHT22;13692;47.480;19.216;2024-01-07T08:36:27;8.50;99.90
25877;DHT22;13692;47.480;19.216;2024-01-07T08:38:54;8.50;99.90
25877;DHT22;13692;47.480;19.216;2024-01-07T08:41:20;8.50;99.90
25877;DHT22;13692;47.480;19.216;2024-01-07T08:43:47;8.50;99.90
25877;DHT22;13692;47.480;19.216;2024-01-07T08:46:14;8.50;99.90
25877;DHT22;13692;47.480;19.216;2024-01-07T08:48:41;8.50;99.90
25877;DHT22;13692;47.480;19.216;2024-01-07T08:51:08;8.50;99.90
25877;DHT22;13692;47.480;19.216;2024-01-07T08:53:35;8.50;99.90
25877;DHT22;13692;47.480;19.216;2024-01-07T08:56:02;8.60;99.90
25877;DHT22;13692;47.480;19.216;2024-01-07T08:58:29;8.60;99.90
25877;DHT22;13692;47.480;19.216;2024-01-07T09:00:56;8.50;99.90
25877;DHT22;13692;47.480;19.216;2024-01-07T09:03:23;8.60;99.90
25877;DHT22;13692;47.480;19.216;2024-01-07T09:05:50;8.60;99.90
25877;DHT22;13692;47.480;19.216;2024-01-07T09:08:17;8.60;99.90
25877;DHT22;13692;47.480;19.216;2024-01-07T09:10:44;8.60;99.90
25877;DHT22;13692;47.480;19.216;2024-01-07T09:13:11;8.60;99.90
25877;DHT22;13692;47.480;19.216;2024-01-07T09:15:38;8.70;99.90
25877;DHT22;13692;47.480;19.216;2024-01-07T09:18:06;8.70;99.90
25877;DHT22;13692;47.480;19.216;2024-01-07T09:20:33;8.70;99.90
25877;DHT22;13692;47.480;19.216;2024-01-07T09:23:00;8.70;99.90
25877;DHT22;13692;47.480;19.216;2024-01-07T09:25:27;8.70;99.90
25877;DHT22;13692;47.480;19.216;2024-01-07T09:27:54;8.70;99.90
25877;DHT22;13692;47.480;19.216;2024-01-07T09:30:21;8.70;99.90
25877;DHT22;13692;47.480;19.216;2024-01-07T09:32:48;8.70;99.90
25877;DHT22;13692;47.480;19.216;2024-01-07T09:35:17;8.80;99.90
25877;DHT22;13692;47.480;19.216;2024-01-07T09:37:44;8.80;99.90
25877;DHT22;13692;47.480;19.216;2024-01-07T09:40:11;8.80;99.90
25877;DHT22;13692;47.480;19.216;2024-01-07T09:42:39;8.90;99.90
25877;DHT22;13692;47.480;19.216;2024-01-07T09:45:06;8.80;99.90
25877;DHT22;13692;47.480;19.216;2024-01-07T09:47:35;8.80;99.90
25877;DHT22;13692;47.480;19.216;2024-01-07T09:50:02;8.80;99.90
25877;DHT22;13692;47.480;19.216;2024-01-07T09:52:29;8.80;99.90
25877;DHT22;13692;47.480;19.216;2024-01-07T09:55:02;8.80;99.90
25877;DHT22;13692;47.480;19.216;2024-01-07T09:57:30;8.80;99.90
25877;DHT22;13692;47.480;19.216;2024-01-07T09:59:58;8.80;99.90
25877;DHT22;13692;47.480;19.216;2024-01-07T10:02:26;8.80;99.90
25877;DHT22;13692;47.480;19.216;2024-01-07T10:04:53;8.80;99.90
25877;DHT22;13692;47.480;19.216;2024-01-07T10:07:20;8.80;99.90
25877;DHT22;13692;47.480;19.216;2024-01-07T10:09:47;8.80;99.90
25877;DHT22;13692;47.480;19.216;2024-01-07T10:12:14;8.80;99.90
25877;DHT22;13692;47.480;19.216;2024-01-07T10:14:42;8.80;99.90
25877;DHT22;13692;47.480;19.216;2024-01-07T10:17:16;8.80;99.90
25877;DHT22;13692;47.480;19.216;2024-01-07T10:19:46;8.70;99.90
25877;DHT22;13692;47.480;19.216;2024-01-07T10:22:13;8.70;99.90
25877;DHT22;13692;47.480;19.216;2024-01-07T10:24:41;8.70;99.90
25877;DHT22;13692;47.480;19.216;2024-01-07T10:27:10;8.70;99.90
25877;DHT22;13692;47.480;19.216;2024-01-07T10:29:37;8.70;99.90
25877;DHT22;13692;47.480;19.216;2024-01-07T10:32:05;8.70;99.90
25877;DHT22;13692;47.480;19.216;2024-01-07T10:34:34;8.70;99.90
25877;DHT22;13692;47.480;19.216;2024-01-07T10:37:04;8.70;99.90
25877;DHT22;13692;47.480;19.216;2024-01-07T10:39:34;8.60;99.90
25877;DHT22;13692;47.480;19.216;2024-01-07T10:42:02;8.60;99.90
25877;DHT22;13692;47.480;19.216;2024-01-07T10:44:31;8.60;99.90
25877;DHT22;13692;47.480;19.216;2024-01-07T10:46:59;8.60;99.90
25877;DHT22;13692;47.480;19.216;2024-01-07T10:49:27;8.70;99.90
25877;DHT22;13692;47.480;19.216;2024-01-07T10:52:06;8.70;99.90
25877;DHT22;13692;47.480;19.216;2024-01-07T10:54:35;8.70;99.90
25877;DHT22;13692;47.480;19.216;2024-01-07T10:59:37;8.70;99.90
25877;DHT22;13692;47.480;19.216;2024-01-07T11:02:05;8.70;99.90
25877;DHT22;13692;47.480;19.216;2024-01-07T11:04:45;8.70;99.90
25877;DHT22;13692;47.480;19.216;2024-01-07T11:07:44;8.70;99.90
25877;DHT22;13692;47.480;19.216;2024-01-07T11:10:55;8.70;99.90
25877;DHT22;13692;47.480;19.216;2024-01-07T11:13:37;8.70;99.90
25877;DHT22;13692;47.480;19.216;2024-01-07T11:16:06;8.60;99.90
25877;DHT22;13692;47.480;19.216;2024-01-07T11:18:49;8.60;99.90
25877;DHT22;13692;47.480;19.216;2024-01-07T11:21:22;8.60;99.90
25877;DHT22;13692;47.480;19.216;2024-01-07T11:23:51;8.60;99.90
25877;DHT22;13692;47.480;19.216;2024-01-07T11:26:20;8.50;99.90
25877;DHT22;13692;47.480;19.216;2024-01-07T11:28:57;8.60;99.90
25877;DHT22;13692;47.480;19.216;2024-01-07T11:31:45;8.60;99.90
25877;DHT22;13692;47.480;19.216;2024-01-07T11:34:42;8.50;99.90
25877;DHT22;13692;47.480;19.216;2024-01-07T11:37:19;8.50;99.90
25877;DHT22;13692;47.480;19.216;2024-01-07T11:39:48;8.60;99.90
25877;DHT22;13692;47.480;19.216;2024-01-07T11:42:16;8.60;99.90
25877;DHT22;13692;47.480;19.216;2024-01-07T11:44:53;8.50;99.90
25877;DHT22;13692;47.480;19.216;2024-01-07T11:47:21;8.50;99.90
25877;DHT22;13692;47.480;19.216;2024-01-07T11:49:48;8.50;99.90
25877;DHT22;13692;47.480;19.216;2024-01-07T11:52:19;8.50;99.90
25877;DHT22;13692;47.480;19.216;2024-01-07T11:54:47;8.50;99.90
25877;DHT22;13692;47.480;19.216;2024-01-07T11:57:14;8.50;99.90
25877;DHT22;13692;47.480;19.216;2024-01-07T11:59:41;8.40;99.90
25877;DHT22;13692;47.480;19.216;2024-01-07T12:02:11;8.40;99.90
25877;DHT22;13692;47.480;19.216;2024-01-07T12:04:38;8.40;99.90
25877;DHT22;13692;47.480;19.216;2024-01-07T12:07:05;8.40;99.90
25877;DHT22;13692;47.480;19.216;2024-01-07T12:09:33;8.40;99.90
25877;DHT22;13692;47.480;19.216;2024-01-07T12:12:00;8.30;99.90
25877;DHT22;13692;47.480;19.216;2024-01-07T12:14:28;8.30;99.90
25877;DHT22;13692;47.480;19.216;2024-01-07T12:16:55;8.30;99.90
25877;DHT22;13692;47.480;19.216;2024-01-07T12:19:22;8.40;99.90
25877;DHT22;13692;47.480;19.216;2024-01-07T12:22:02;8.30;99.90
25877;DHT22;13692;47.480;19.216;2024-01-07T12:24:30;8.30;99.90
25877;DHT22;13692;47.480;19.216;2024-01-07T12:27:04;8.30;99.90
25877;DHT22;13692;47.480;19.216;2024-01-07T12:29:31;8.20;99.90
25877;DHT22;13692;47.480;19.216;2024-01-07T12:31:59;8.20;99.90
25877;DHT22;13692;47.480;19.216;2024-01-07T12:34:27;8.20;99.90
25877;DHT22;13692;47.480;19.216;2024-01-07T12:36:54;8.20;99.90
25877;DHT22;13692;47.480;19.216;2024-01-07T12:39:22;8.10;99.90
25877;DHT22;13692;47.480;19.216;2024-01-07T12:41:53;8.20;99.90
25877;DHT22;13692;47.480;19.216;2024-01-07T12:44:20;8.20;99.90
25877;DHT22;13692;47.480;19.216;2024-01-07T12:46:47;8.10;99.90
25877;DHT22;13692;47.480;19.216;2024-01-07T12:49:15;8.10;99.90
25877;DHT22;13692;47.480;19.216;2024-01-07T12:51:42;8.10;99.90
25877;DHT22;13692;47.480;19.216;2024-01-07T12:54:09;8.10;99.90
25877;DHT22;13692;47.480;19.216;2024-01-07T12:56:36;8.10;99.90
25877;DHT22;13692;47.480;19.216;2024-01-07T12:59:03;8.10;99.90
25877;DHT22;13692;47.480;19.216;2024-01-07T13:01:30;8.10;99.90
25877;DHT22;13692;47.480;19.216;2024-01-07T13:03:58;8.20;99.90
25877;DHT22;13692;47.480;19.216;2024-01-07T13:06:26;8.10;99.90
25877;DHT22;13692;47.480;19.216;2024-01-07T13:08:53;8.10;99.90
25877;DHT22;13692;47.480;19.216;2024-01-07T13:11:21;8.00;99.90
25877;DHT22;13692;47.480;19.216;2024-01-07T13:13:48;8.00;99.90
25877;DHT22;13692;47.480;19.216;2024-01-07T13:16:15;7.90;99.90
25877;DHT22;13692;47.480;19.216;2024-01-07T13:18:42;7.90;99.90
25877;DHT22;13692;47.480;19.216;2024-01-07T13:21:09;7.80;99.90
25877;DHT22;13692;47.480;19.216;2024-01-07T13:23:36;7.80;99.90
25877;DHT22;13692;47.480;19.216;2024-01-07T13:26:03;7.80;99.90
25877;DHT22;13692;47.480;19.216;2024-01-07T13:28:33;7.80;99.90
25877;DHT22;13692;47.480;19.216;2024-01-07T13:31:00;7.80;99.90
25877;DHT22;13692;47.480;19.216;2024-01-07T13:33:27;7.80;99.90
25877;DHT22;13692;47.480;19.216;2024-01-07T13:35:54;7.70;99.90
25877;DHT22;13692;47.480;19.216;2024-01-07T13:38:21;7.70;99.90
25877;DHT22;13692;47.480;19.216;2024-01-07T13:40:48;7.60;99.90
25877;DHT22;13692;47.480;19.216;2024-01-07T13:43:15;7.60;99.90
25877;DHT22;13692;47.480;19.216;2024-01-07T13:45:42;7.60;99.90
25877;DHT22;13692;47.480;19.216;2024-01-07T13:48:09;7.50;99.90
25877;DHT22;13692;47.480;19.216;2024-01-07T13:50:37;7.50;99.90
25877;DHT22;13692;47.480;19.216;2024-01-07T13:53:03;7.50;99.90
25877;DHT22;13692;47.480;19.216;2024-01-07T13:55:30;7.50;99.90
25877;DHT22;13692;47.480;19.216;2024-01-07T13:57:58;7.50;99.90
25877;DHT22;13692;47.480;19.216;2024-01-07T14:00:26;7.40;99.90
25877;DHT22;13692;47.480;19.216;2024-01-07T14:02:53;7.50;99.90
25877;DHT22;13692;47.480;19.216;2024-01-07T14:05:20;7.50;99.90
25877;DHT22;13692;47.480;19.216;2024-01-07T14:07:47;7.50;99.90
25877;DHT22;13692;47.480;19.216;2024-01-07T14:10:14;7.50;99.90
25877;DHT22;13692;47.480;19.216;2024-01-07T14:12:43;7.50;99.90
25877;DHT22;13692;47.480;19.216;2024-01-07T14:15:10;7.50;99.90
25877;DHT22;13692;47.480;19.216;2024-01-07T14:17:37;7.50;99.90
25877;DHT22;13692;47.480;19.216;2024-01-07T14:20:07;7.40;99.90
25877;DHT22;13692;47.480;19.216;2024-01-07T14:22:34;7.40;99.90
25877;DHT22;13692;47.480;19.216;2024-01-07T14:25:01;7.40;99.90
25877;DHT22;13692;47.480;19.216;2024-01-07T14:27:30;7.30;99.90
25877;DHT22;13692;47.480;19.216;2024-01-07T14:29:57;7.30;99.90
25877;DHT22;13692;47.480;19.216;2024-01-07T14:32:24;7.20;99.90
25877;DHT22;13692;47.480;19.216;2024-01-07T14:34:51;7.10;99.90
25877;DHT22;13692;47.480;19.216;2024-01-07T14:37:18;7.00;99.90
25877;DHT22;13692;47.480;19.216;2024-01-07T14:39:47;6.90;99.90
25877;DHT22;13692;47.480;19.216;2024-01-07T14:42:14;6.80;99.90
25877;DHT22;13692;47.480;19.216;2024-01-07T14:44:41;6.80;99.90
25877;DHT22;13692;47.480;19.216;2024-01-07T14:47:16;6.70;99.90
25877;DHT22;13692;47.480;19.216;2024-01-07T14:49:44;6.60;99.90
25877;DHT22;13692;47.480;19.216;2024-01-07T14:52:12;6.60;99.90
25877;DHT22;13692;47.480;19.216;2024-01-07T14:54:39;6.50;99.90
25877;DHT22;13692;47.480;19.216;2024-01-07T14:57:06;6.40;99.90
25877;DHT22;13692;47.480;19.216;2024-01-07T14:59:35;6.40;99.90
25877;DHT22;13692;47.480;19.216;2024-01-07T15:02:03;6.30;99.90
25877;DHT22;13692;47.480;19.216;2024-01-07T15:04:31;6.20;99.90
25877;DHT22;13692;47.480;19.216;2024-01-07T15:06:58;6.20;99.90
25877;DHT22;13692;47.480;19.216;2024-01-07T15:09:25;6.10;99.90
25877;DHT22;13692;47.480;19.216;2024-01-07T15:11:54;6.10;99.90
25877;DHT22;13692;47.480;19.216;2024-01-07T15:14:21;6.10;99.90
25877;DHT22;13692;47.480;19.216;2024-01-07T15:16:49;6.00;99.90
25877;DHT22;13692;47.480;19.216;2024-01-07T15:19:21;6.00;99.90
25877;DHT22;13692;47.480;19.216;2024-01-07T15:21:50;5.90;99.90
25877;DHT22;13692;47.480;19.216;2024-01-07T15:24:17;5.90;99.90
25877;DHT22;13692;47.480;19.216;2024-01-07T15:26:43;5.80;99.90
25877;DHT22;13692;47.480;19.216;2024-01-07T15:29:10;5.80;99.90
25877;DHT22;13692;47.480;19.216;2024-01-07T15:31:37;5.80;99.90
25877;DHT22;13692;47.480;19.216;2024-01-07T15:34:05;5.70;99.90
25877;DHT22;13692;47.480;19.216;2024-01-07T15:36:33;5.70;99.90